sensor_id;sensor_type;location;lat;lon;timestamp;P1;durP1;ratioP1;P2;durP2;ratioP2
40244;SDS011;25963;42.694;23.600;2023-04-12T00:00:29;25.73;;;16.63;;
40244;SDS011;25963;42.694;23.600;2023-04-12T00:02:55;22.50;;;15.93;;
40244;SDS011;25963;42.694;23.600;2023-04-12T00:05:23;23.50;;;16.63;;
40244;SDS011;25963;42.694;23.600;2023-04-12T00:07:51;26.52;;;17.75;;
40244;SDS011;25963;42.694;23.600;2023-04-12T00:10:19;25.45;;;17.35;;
40244;SDS011;25963;42.694;23.600;2023-04-12T00:12:45;25.50;;;17.08;;
40244;SDS011;25963;42.694;23.600;2023-04-12T00:15:11;27.17;;;18.00;;
40244;SDS011;25963;42.694;23.600;2023-04-12T00:17:37;25.48;;;15.73;;
40244;SDS011;25963;42.694;23.600;2023-04-12T00:20:03;24.80;;;16.77;;
40244;SDS011;25963;42.694;23.600;2023-04-12T00:22:30;25.83;;;17.67;;
40244;SDS011;25963;42.694;23.600;2023-04-12T00:24:55;24.88;;;16.52;;
40244;SDS011;25963;42.694;23.600;2023-04-12T00:27:20;23.55;;;16.52;;
40244;SDS011;25963;42.694;23.600;2023-04-12T00:29:46;25.52;;;17.63;;
40244;SDS011;25963;42.694;23.600;2023-04-12T00:32:11;30.20;;;19.75;;
40244;SDS011;25963;42.694;23.600;2023-04-12T00:34:37;30.40;;;17.08;;
40244;SDS011;25963;42.694;23.600;2023-04-12T00:37:02;25.08;;;18.05;;
40244;SDS011;25963;42.694;23.600;2023-04-12T00:39:28;29.27;;;17.85;;
40244;SDS011;25963;42.694;23.600;2023-04-12T00:41:53;27.02;;;17.75;;
40244;SDS011;25963;42.694;23.600;2023-04-12T00:44:21;27.90;;;18.65;;
40244;SDS011;25963;42.694;23.600;2023-04-12T00:46:47;30.48;;;19.13;;
40244;SDS011;25963;42.694;23.600;2023-04-12T00:49:12;30.33;;;20.50;;
40244;SDS011;25963;42.694;23.600;2023-04-12T00:51:39;26.35;;;18.00;;
40244;SDS011;25963;42.694;23.600;2023-04-12T00:54:05;28.27;;;18.25;;
40244;SDS011;25963;42.694;23.600;2023-04-12T00:56:32;25.95;;;16.90;;
40244;SDS011;25963;42.694;23.600;2023-04-12T00:58:58;28.05;;;17.05;;
40244;SDS011;25963;42.694;23.600;2023-04-12T01:01:24;30.27;;;17.98;;
40244;SDS011;25963;42.694;23.600;2023-04-12T01:03:52;27.35;;;17.20;;
40244;SDS011;25963;42.694;23.600;2023-04-12T01:15:07;26.10;;;17.45;;
40244;SDS011;25963;42.694;23.600;2023-04-12T01:17:50;24.08;;;17.15;;
40244;SDS011;25963;42.694;23.600;2023-04-12T01:20:22;23.42;;;16.27;;
40244;SDS011;25963;42.694;23.600;2023-04-12T01:26:08;26.30;;;16.02;;
40244;SDS011;25963;42.694;23.600;2023-04-12T01:28:34;25.80;;;17.02;;
40244;SDS011;25963;42.694;23.600;2023-04-12T01:31:03;25.92;;;18.23;;
40244;SDS011;25963;42.694;23.600;2023-04-12T01:33:31;27.83;;;18.42;;
40244;SDS011;25963;42.694;23.600;2023-04-12T01:36:02;24.98;;;16.38;;
40244;SDS011;25963;42.694;23.600;2023-04-12T01:38:31;28.53;;;17.17;;
40244;SDS011;25963;42.694;23.600;2023-04-12T01:40:57;24.27;;;17.50;;
40244;SDS011;25963;42.694;23.600;2023-04-12T01:43:23;28.63;;;17.98;;
40244;SDS011;25963;42.694;23.600;2023-04-12T01:45:48;26.85;;;17.83;;
40244;SDS011;25963;42.694;23.600;2023-04-12T01:48:14;23.88;;;15.10;;
40244;SDS011;25963;42.694;23.600;2023-04-12T01:56:12;29.98;;;18.42;;
40244;SDS011;25963;42.694;23.600;2023-04-12T01:58:41;25.02;;;17.35;;
40244;SDS011;25963;42.694;23.600;2023-04-12T02:01:08;25.98;;;17.50;;
40244;SDS011;25963;42.694;23.600;2023-04-12T02:03:36;27.77;;;19.35;;
40244;SDS011;25963;42.694;23.600;2023-04-12T02:06:07;30.80;;;18.40;;
40244;SDS011;25963;42.694;23.600;2023-04-12T02:08:34;27.98;;;18.38;;
40244;SDS011;25963;42.694;23.600;2023-04-12T02:11:00;28.00;;;18.75;;
40244;SDS011;25963;42.694;23.600;2023-04-12T02:13:25;29.80;;;18.40;;
40244;SDS011;25963;42.694;23.600;2023-04-12T02:15:51;27.55;;;17.98;;
40244;SDS011;25963;42.694;23.600;2023-04-12T02:18:18;27.90;;;19.05;;
40244;SDS011;25963;42.694;23.600;2023-04-12T02:20:44;28.00;;;18.45;;
40244;SDS011;25963;42.694;23.600;2023-04-12T02:23:10;28.00;;;17.75;;
40244;SDS011;25963;42.694;23.600;2023-04-12T02:25:36;32.97;;;19.27;;
40244;SDS011;25963;42.694;23.600;2023-04-12T02:28:03;29.75;;;19.45;;
40244;SDS011;25963;42.694;23.600;2023-04-12T02:30:29;31.02;;;19.73;;
40244;SDS011;25963;42.694;23.600;2023-04-12T02:32:54;28.95;;;18.48;;
40244;SDS011;25963;42.694;23.600;2023-04-12T02:35:20;27.65;;;18.80;;
40244;SDS011;25963;42.694;23.600;2023-04-12T02:37:46;29.40;;;19.27;;
40244;SDS011;25963;42.694;23.600;2023-04-12T02:40:13;31.77;;;19.58;;
40244;SDS011;25963;42.694;23.600;2023-04-12T02:42:42;31.42;;;20.38;;
40244;SDS011;25963;42.694;23.600;2023-04-12T02:45:08;34.53;;;21.40;;
40244;SDS011;25963;42.694;23.600;2023-04-12T02:47:34;35.65;;;21.85;;
40244;SDS011;25963;42.694;23.600;2023-04-12T02:50:01;34.80;;;21.58;;
40244;SDS011;25963;42.694;23.600;2023-04-12T02:52:27;34.80;;;21.50;;
40244;SDS011;25963;42.694;23.600;2023-04-12T02:54:53;35.10;;;20.23;;
40244;SDS011;25963;42.694;23.600;2023-04-12T02:57:20;32.80;;;21.52;;
40244;SDS011;25963;42.694;23.600;2023-04-12T02:59:45;36.25;;;21.83;;
40244;SDS011;25963;42.694;23.600;2023-04-12T03:02:11;31.83;;;21.25;;
40244;SDS011;25963;42.694;23.600;2023-04-12T03:04:36;34.88;;;22.42;;
40244;SDS011;25963;42.694;23.600;2023-04-12T03:07:04;38.80;;;24.48;;
40244;SDS011;25963;42.694;23.600;2023-04-12T03:09:30;36.38;;;22.55;;
40244;SDS011;25963;42.694;23.600;2023-04-12T03:11:56;37.83;;;24.35;;
40244;SDS011;25963;42.694;23.600;2023-04-12T03:14:22;37.28;;;23.58;;
40244;SDS011;25963;42.694;23.600;2023-04-12T03:16:47;36.15;;;22.13;;
40244;SDS011;25963;42.694;23.600;2023-04-12T03:19:15;33.45;;;21.55;;
40244;SDS011;25963;42.694;23.600;2023-04-12T03:21:40;33.95;;;21.38;;
40244;SDS011;25963;42.694;23.600;2023-04-12T03:24:06;34.33;;;22.02;;
40244;SDS011;25963;42.694;23.600;2023-04-12T03:26:32;32.22;;;20.90;;
40244;SDS011;25963;42.694;23.600;2023-04-12T03:28:58;32.22;;;21.70;;
40244;SDS011;25963;42.694;23.600;2023-04-12T03:31:25;33.88;;;19.98;;
40244;SDS011;25963;42.694;23.600;2023-04-12T03:33:52;37.42;;;23.45;;
40244;SDS011;25963;42.694;23.600;2023-04-12T03:36:18;43.60;;;23.45;;
40244;SDS011;25963;42.694;23.600;2023-04-12T03:38:45;34.80;;;22.65;;
40244;SDS011;25963;42.694;23.600;2023-04-12T03:41:11;37.97;;;23.80;;
40244;SDS011;25963;42.694;23.600;2023-04-12T03:43:36;41.80;;;23.00;;
40244;SDS011;25963;42.694;23.600;2023-04-12T03:46:02;44.20;;;25.45;;
40244;SDS011;25963;42.694;23.600;2023-04-12T03:48:28;38.38;;;24.20;;
40244;SDS011;25963;42.694;23.600;2023-04-12T03:50:54;36.92;;;24.13;;
40244;SDS011;25963;42.694;23.600;2023-04-12T03:53:19;38.88;;;24.42;;
40244;SDS011;25963;42.694;23.600;2023-04-12T03:55:45;41.28;;;25.13;;
40244;SDS011;25963;42.694;23.600;2023-04-12T03:58:11;39.10;;;23.25;;
40244;SDS011;25963;42.694;23.600;2023-04-12T04:00:37;39.85;;;22.95;;
40244;SDS011;25963;42.694;23.600;2023-04-12T04:03:03;38.30;;;24.73;;
40244;SDS011;25963;42.694;23.600;2023-04-12T04:05:29;45.00;;;24.48;;
40244;SDS011;25963;42.694;23.600;2023-04-12T04:07:56;39.38;;;24.35;;
40244;SDS011;25963;42.694;23.600;2023-04-12T04:10:29;39.53;;;24.80;;
40244;SDS011;25963;42.694;23.600;2023-04-12T04:12:54;40.92;;;24.27;;
40244;SDS011;25963;42.694;23.600;2023-04-12T04:15:20;47.03;;;25.85;;
40244;SDS011;25963;42.694;23.600;2023-04-12T04:17:46;47.33;;;28.23;;
40244;SDS011;25963;42.694;23.600;2023-04-12T04:20:13;50.85;;;28.83;;
40244;SDS011;25963;42.694;23.600;2023-04-12T04:22:39;48.80;;;29.45;;
40244;SDS011;25963;42.694;23.600;2023-04-12T04:25:06;45.55;;;28.75;;
40244;SDS011;25963;42.694;23.600;2023-04-12T04:27:32;48.25;;;28.13;;
40244;SDS011;25963;42.694;23.600;2023-04-12T04:30:01;46.63;;;26.77;;
40244;SDS011;25963;42.694;23.600;2023-04-12T04:32:29;43.47;;;27.40;;
40244;SDS011;25963;42.694;23.600;2023-04-12T04:34:55;47.72;;;28.42;;
40244;SDS011;25963;42.694;23.600;2023-04-12T04:37:23;38.20;;;25.45;;
40244;SDS011;25963;42.694;23.600;2023-04-12T04:40:01;43.17;;;26.17;;
40244;SDS011;25963;42.694;23.600;2023-04-12T04:42:32;43.38;;;25.67;;
40244;SDS011;25963;42.694;23.600;2023-04-12T04:44:57;41.50;;;25.75;;
40244;SDS011;25963;42.694;23.600;2023-04-12T04:47:36;39.40;;;24.20;;
40244;SDS011;25963;42.694;23.600;2023-04-12T04:50:02;38.30;;;25.48;;
40244;SDS011;25963;42.694;23.600;2023-04-12T04:52:28;41.38;;;25.90;;
40244;SDS011;25963;42.694;23.600;2023-04-12T04:54:53;35.42;;;23.80;;
40244;SDS011;25963;42.694;23.600;2023-04-12T04:57:21;36.20;;;22.95;;
40244;SDS011;25963;42.694;23.600;2023-04-12T04:59:50;35.30;;;22.98;;
40244;SDS011;25963;42.694;23.600;2023-04-12T05:02:16;31.67;;;23.05;;
40244;SDS011;25963;42.694;23.600;2023-04-12T05:04:41;30.30;;;21.58;;
40244;SDS011;25963;42.694;23.600;2023-04-12T05:07:07;27.75;;;21.40;;
40244;SDS011;25963;42.694;23.600;2023-04-12T05:09:32;35.75;;;21.35;;
40244;SDS011;25963;42.694;23.600;2023-04-12T05:11:58;30.42;;;21.73;;
40244;SDS011;25963;42.694;23.600;2023-04-12T05:14:23;26.55;;;19.98;;
40244;SDS011;25963;42.694;23.600;2023-04-12T05:16:49;30.75;;;22.27;;
40244;SDS011;25963;42.694;23.600;2023-04-12T05:19:14;32.60;;;22.52;;
40244;SDS011;25963;42.694;23.600;2023-04-12T05:21:40;35.13;;;21.02;;
40244;SDS011;25963;42.694;23.600;2023-04-12T05:24:06;32.03;;;20.75;;
40244;SDS011;25963;42.694;23.600;2023-04-12T05:26:31;30.45;;;21.40;;
40244;SDS011;25963;42.694;23.600;2023-04-12T05:28:58;34.65;;;20.60;;
40244;SDS011;25963;42.694;23.600;2023-04-12T05:31:25;28.08;;;19.45;;
40244;SDS011;25963;42.694;23.600;2023-04-12T05:33:51;31.33;;;21.38;;
40244;SDS011;25963;42.694;23.600;2023-04-12T05:36:18;33.15;;;22.65;;
40244;SDS011;25963;42.694;23.600;2023-04-12T05:38:44;27.30;;;19.38;;
40244;SDS011;25963;42.694;23.600;2023-04-12T05:41:10;27.23;;;19.98;;
40244;SDS011;25963;42.694;23.600;2023-04-12T05:43:36;31.75;;;19.27;;
40244;SDS011;25963;42.694;23.600;2023-04-12T05:46:01;28.65;;;19.27;;
40244;SDS011;25963;42.694;23.600;2023-04-12T05:48:27;35.35;;;23.67;;
40244;SDS011;25963;42.694;23.600;2023-04-12T05:50:53;31.92;;;21.55;;
40244;SDS011;25963;42.694;23.600;2023-04-12T05:53:19;36.03;;;24.38;;
40244;SDS011;25963;42.694;23.600;2023-04-12T05:55:45;31.00;;;20.20;;
40244;SDS011;25963;42.694;23.600;2023-04-12T05:58:11;38.17;;;25.73;;
40244;SDS011;25963;42.694;23.600;2023-04-12T06:00:37;28.70;;;19.95;;
40244;SDS011;25963;42.694;23.600;2023-04-12T06:03:06;34.72;;;21.90;;
40244;SDS011;25963;42.694;23.600;2023-04-12T06:05:33;28.67;;;19.23;;
40244;SDS011;25963;42.694;23.600;2023-04-12T06:07:59;43.17;;;26.55;;
40244;SDS011;25963;42.694;23.600;2023-04-12T06:10:24;24.10;;;16.45;;
40244;SDS011;25963;42.694;23.600;2023-04-12T06:12:50;25.90;;;17.42;;
40244;SDS011;25963;42.694;23.600;2023-04-12T06:15:15;26.73;;;16.20;;
40244;SDS011;25963;42.694;23.600;2023-04-12T06:17:41;19.92;;;13.90;;
40244;SDS011;25963;42.694;23.600;2023-04-12T06:20:07;18.77;;;13.85;;
40244;SDS011;25963;42.694;23.600;2023-04-12T06:22:34;17.25;;;12.60;;
40244;SDS011;25963;42.694;23.600;2023-04-12T06:25:00;15.70;;;11.27;;
40244;SDS011;25963;42.694;23.600;2023-04-12T06:27:25;20.70;;;11.77;;
40244;SDS011;25963;42.694;23.600;2023-04-12T06:29:51;16.67;;;11.68;;
40244;SDS011;25963;42.694;23.600;2023-04-12T06:32:17;16.98;;;10.45;;
40244;SDS011;25963;42.694;23.600;2023-04-12T06:34:42;31.90;;;20.85;;
40244;SDS011;25963;42.694;23.600;2023-04-12T06:37:08;18.90;;;12.45;;
40244;SDS011;25963;42.694;23.600;2023-04-12T06:39:33;19.75;;;13.07;;
40244;SDS011;25963;42.694;23.600;2023-04-12T06:41:58;28.48;;;18.00;;
40244;SDS011;25963;42.694;23.600;2023-04-12T06:44:25;16.95;;;10.73;;
40244;SDS011;25963;42.694;23.600;2023-04-12T06:46:51;21.58;;;14.20;;
40244;SDS011;25963;42.694;23.600;2023-04-12T06:49:17;13.55;;;9.15;;
40244;SDS011;25963;42.694;23.600;2023-04-12T06:51:43;12.18;;;8.45;;
40244;SDS011;25963;42.694;23.600;2023-04-12T06:54:08;11.13;;;7.90;;
40244;SDS011;25963;42.694;23.600;2023-04-12T06:56:35;16.60;;;9.68;;
40244;SDS011;25963;42.694;23.600;2023-04-12T06:59:01;14.38;;;7.40;;
40244;SDS011;25963;42.694;23.600;2023-04-12T07:01:27;11.88;;;8.63;;
40244;SDS011;25963;42.694;23.600;2023-04-12T07:03:52;18.40;;;8.93;;
40244;SDS011;25963;42.694;23.600;2023-04-12T07:06:18;13.73;;;7.35;;
40244;SDS011;25963;42.694;23.600;2023-04-12T07:08:43;10.30;;;6.70;;
40244;SDS011;25963;42.694;23.600;2023-04-12T07:11:08;17.15;;;8.85;;
40244;SDS011;25963;42.694;23.600;2023-04-12T07:13:34;8.27;;;5.97;;
40244;SDS011;25963;42.694;23.600;2023-04-12T07:16:00;9.88;;;7.40;;
40244;SDS011;25963;42.694;23.600;2023-04-12T07:18:25;13.38;;;6.65;;
40244;SDS011;25963;42.694;23.600;2023-04-12T07:20:53;9.98;;;7.30;;
40244;SDS011;25963;42.694;23.600;2023-04-12T07:23:19;13.60;;;7.10;;
40244;SDS011;25963;42.694;23.600;2023-04-12T07:25:44;7.25;;;5.70;;
40244;SDS011;25963;42.694;23.600;2023-04-12T07:28:10;7.35;;;5.85;;
40244;SDS011;25963;42.694;23.600;2023-04-12T07:30:37;8.20;;;6.10;;
40244;SDS011;25963;42.694;23.600;2023-04-12T07:33:03;6.03;;;5.18;;
40244;SDS011;25963;42.694;23.600;2023-04-12T07:35:32;13.10;;;5.70;;
40244;SDS011;25963;42.694;23.600;2023-04-12T07:37:58;6.72;;;5.20;;
40244;SDS011;25963;42.694;23.600;2023-04-12T07:40:24;7.75;;;5.85;;
40244;SDS011;25963;42.694;23.600;2023-04-12T07:42:49;9.50;;;4.75;;
40244;SDS011;25963;42.694;23.600;2023-04-12T07:45:15;7.80;;;4.97;;
40244;SDS011;25963;42.694;23.600;2023-04-12T07:47:41;5.85;;;4.45;;
40244;SDS011;25963;42.694;23.600;2023-04-12T07:50:06;9.57;;;5.88;;
40244;SDS011;25963;42.694;23.600;2023-04-12T07:52:32;10.05;;;4.95;;
40244;SDS011;25963;42.694;23.600;2023-04-12T07:54:57;7.07;;;5.88;;
40244;SDS011;25963;42.694;23.600;2023-04-12T07:57:23;7.47;;;6.22;;
40244;SDS011;25963;42.694;23.600;2023-04-12T07:59:49;9.50;;;5.70;;
40244;SDS011;25963;42.694;23.600;2023-04-12T08:02:14;10.45;;;5.57;;
40244;SDS011;25963;42.694;23.600;2023-04-12T08:04:49;8.77;;;5.78;;
40244;SDS011;25963;42.694;23.600;2023-04-12T08:07:17;12.18;;;6.10;;
40244;SDS011;25963;42.694;23.600;2023-04-12T08:09:43;12.35;;;6.55;;
40244;SDS011;25963;42.694;23.600;2023-04-12T08:12:09;11.25;;;6.05;;
40244;SDS011;25963;42.694;23.600;2023-04-12T08:14:35;9.50;;;4.88;;
40244;SDS011;25963;42.694;23.600;2023-04-12T08:17:00;12.70;;;6.97;;
40244;SDS011;25963;42.694;23.600;2023-04-12T08:19:26;5.78;;;4.10;;
40244;SDS011;25963;42.694;23.600;2023-04-12T08:21:51;8.85;;;4.22;;
40244;SDS011;25963;42.694;23.600;2023-04-12T08:24:17;5.65;;;4.05;;
40244;SDS011;25963;42.694;23.600;2023-04-12T08:26:44;20.80;;;4.97;;
40244;SDS011;25963;42.694;23.600;2023-04-12T08:29:10;4.80;;;3.42;;
40244;SDS011;25963;42.694;23.600;2023-04-12T08:31:35;7.05;;;3.88;;
40244;SDS011;25963;42.694;23.600;2023-04-12T08:34:01;7.75;;;4.07;;
40244;SDS011;25963;42.694;23.600;2023-04-12T08:36:26;5.03;;;3.53;;
40244;SDS011;25963;42.694;23.600;2023-04-12T08:38:52;6.13;;;3.13;;
40244;SDS011;25963;42.694;23.600;2023-04-12T08:41:20;5.10;;;2.97;;
40244;SDS011;25963;42.694;23.600;2023-04-12T08:43:46;10.35;;;3.47;;
40244;SDS011;25963;42.694;23.600;2023-04-12T08:46:13;8.48;;;3.15;;
40244;SDS011;25963;42.694;23.600;2023-04-12T08:48:45;9.35;;;5.38;;
40244;SDS011;25963;42.694;23.600;2023-04-12T08:51:18;9.57;;;4.57;;
40244;SDS011;25963;42.694;23.600;2023-04-12T08:53:45;9.95;;;3.72;;
40244;SDS011;25963;42.694;23.600;2023-04-12T08:56:11;4.88;;;3.40;;
40244;SDS011;25963;42.694;23.600;2023-04-12T08:58:37;3.08;;;2.50;;
40244;SDS011;25963;42.694;23.600;2023-04-12T09:01:12;5.88;;;3.45;;
40244;SDS011;25963;42.694;23.600;2023-04-12T09:03:39;12.02;;;4.20;;
40244;SDS011;25963;42.694;23.600;2023-04-12T09:06:05;5.97;;;2.95;;
40244;SDS011;25963;42.694;23.600;2023-04-12T09:08:31;8.15;;;3.83;;
40244;SDS011;25963;42.694;23.600;2023-04-12T09:10:56;6.10;;;2.67;;
40244;SDS011;25963;42.694;23.600;2023-04-12T09:13:32;3.60;;;2.40;;
40244;SDS011;25963;42.694;23.600;2023-04-12T09:15:58;9.35;;;4.07;;
40244;SDS011;25963;42.694;23.600;2023-04-12T09:18:24;8.23;;;4.85;;
40244;SDS011;25963;42.694;23.600;2023-04-12T09:20:55;6.28;;;3.30;;
40244;SDS011;25963;42.694;23.600;2023-04-12T09:23:31;3.00;;;2.00;;
40244;SDS011;25963;42.694;23.600;2023-04-12T09:25:56;5.45;;;3.28;;
40244;SDS011;25963;42.694;23.600;2023-04-12T09:30:51;5.70;;;3.50;;
40244;SDS011;25963;42.694;23.600;2023-04-12T09:33:18;3.63;;;2.53;;
40244;SDS011;25963;42.694;23.600;2023-04-12T09:35:44;3.45;;;2.03;;
40244;SDS011;25963;42.694;23.600;2023-04-12T09:38:10;22.70;;;13.98;;
40244;SDS011;25963;42.694;23.600;2023-04-12T09:40:36;7.22;;;3.03;;
40244;SDS011;25963;42.694;23.600;2023-04-12T09:43:02;6.45;;;4.18;;
40244;SDS011;25963;42.694;23.600;2023-04-12T09:45:28;8.48;;;3.78;;
40244;SDS011;25963;42.694;23.600;2023-04-12T09:47:55;5.05;;;2.05;;
40244;SDS011;25963;42.694;23.600;2023-04-12T09:50:24;3.28;;;1.73;;
40244;SDS011;25963;42.694;23.600;2023-04-12T09:52:54;4.82;;;2.50;;
40244;SDS011;25963;42.694;23.600;2023-04-12T09:55:26;5.78;;;3.42;;
40244;SDS011;25963;42.694;23.600;2023-04-12T09:57:53;3.83;;;1.13;;
40244;SDS011;25963;42.694;23.600;2023-04-12T10:00:21;6.63;;;2.22;;
40244;SDS011;25963;42.694;23.600;2023-04-12T10:02:48;5.00;;;2.30;;
40244;SDS011;25963;42.694;23.600;2023-04-12T10:05:15;5.50;;;2.53;;
40244;SDS011;25963;42.694;23.600;2023-04-12T10:07:43;6.55;;;2.30;;
40244;SDS011;25963;42.694;23.600;2023-04-12T10:10:09;5.22;;;1.77;;
40244;SDS011;25963;42.694;23.600;2023-04-12T10:12:36;1.85;;;1.17;;
40244;SDS011;25963;42.694;23.600;2023-04-12T10:15:04;6.10;;;2.25;;
40244;SDS011;25963;42.694;23.600;2023-04-12T10:17:40;7.55;;;1.40;;
40244;SDS011;25963;42.694;23.600;2023-04-12T10:20:10;4.90;;;1.27;;
40244;SDS011;25963;42.694;23.600;2023-04-12T10:22:47;7.50;;;2.20;;
40244;SDS011;25963;42.694;23.600;2023-04-12T10:25:20;3.42;;;1.27;;
40244;SDS011;25963;42.694;23.600;2023-04-12T10:27:47;3.30;;;1.10;;
40244;SDS011;25963;42.694;23.600;2023-04-12T10:30:20;2.65;;;1.50;;
40244;SDS011;25963;42.694;23.600;2023-04-12T10:35:27;4.93;;;1.35;;
40244;SDS011;25963;42.694;23.600;2023-04-12T10:38:03;2.83;;;1.95;;
40244;SDS011;25963;42.694;23.600;2023-04-12T10:40:29;3.53;;;1.50;;
40244;SDS011;25963;42.694;23.600;2023-04-12T10:45:42;1.88;;;1.25;;
40244;SDS011;25963;42.694;23.600;2023-04-12T10:48:27;6.63;;;1.10;;
40244;SDS011;25963;42.694;23.600;2023-04-12T10:53:51;3.58;;;0.90;;
40244;SDS011;25963;42.694;23.600;2023-04-12T10:58:58;4.20;;;1.35;;
40244;SDS011;25963;42.694;23.600;2023-04-12T11:01:25;5.13;;;1.30;;
40244;SDS011;25963;42.694;23.600;2023-04-12T11:14:34;3.92;;;1.08;;
40244;SDS011;25963;42.694;23.600;2023-04-12T11:19:43;5.78;;;1.00;;
40244;SDS011;25963;42.694;23.600;2023-04-12T11:22:11;4.35;;;1.02;;
40244;SDS011;25963;42.694;23.600;2023-04-12T11:24:48;7.40;;;3.25;;
40244;SDS011;25963;42.694;23.600;2023-04-12T11:27:15;3.90;;;2.15;;
40244;SDS011;25963;42.694;23.600;2023-04-12T11:29:43;4.13;;;1.67;;
40244;SDS011;25963;42.694;23.600;2023-04-12T11:32:12;16.88;;;7.13;;
40244;SDS011;25963;42.694;23.600;2023-04-12T11:34:39;5.57;;;2.20;;
40244;SDS011;25963;42.694;23.600;2023-04-12T11:37:05;18.83;;;2.78;;
40244;SDS011;25963;42.694;23.600;2023-04-12T11:39:35;10.02;;;6.40;;
40244;SDS011;25963;42.694;23.600;2023-04-12T11:42:10;5.25;;;1.20;;
40244;SDS011;25963;42.694;23.600;2023-04-12T11:44:40;5.22;;;1.17;;
40244;SDS011;25963;42.694;23.600;2023-04-12T11:47:18;5.35;;;2.22;;
40244;SDS011;25963;42.694;23.600;2023-04-12T11:49:46;1.80;;;1.10;;
40244;SDS011;25963;42.694;23.600;2023-04-12T11:52:13;4.85;;;1.63;;
40244;SDS011;25963;42.694;23.600;2023-04-12T11:54:43;3.70;;;1.20;;
40244;SDS011;25963;42.694;23.600;2023-04-12T11:57:13;8.25;;;1.90;;
40244;SDS011;25963;42.694;23.600;2023-04-12T11:59:41;3.17;;;0.88;;
40244;SDS011;25963;42.694;23.600;2023-04-12T12:02:09;3.33;;;1.08;;
40244;SDS011;25963;42.694;23.600;2023-04-12T12:04:35;16.90;;;2.55;;
40244;SDS011;25963;42.694;23.600;2023-04-12T12:07:02;5.80;;;1.83;;
40244;SDS011;25963;42.694;23.600;2023-04-12T12:09:28;3.65;;;1.48;;
40244;SDS011;25963;42.694;23.600;2023-04-12T12:11:53;6.55;;;1.77;;
40244;SDS011;25963;42.694;23.600;2023-04-12T12:14:21;7.78;;;1.83;;
40244;SDS011;25963;42.694;23.600;2023-04-12T12:16:51;20.55;;;4.15;;
40244;SDS011;25963;42.694;23.600;2023-04-12T12:22:03;10.40;;;1.92;;
40244;SDS011;25963;42.694;23.600;2023-04-12T12:24:54;3.70;;;1.10;;
40244;SDS011;25963;42.694;23.600;2023-04-12T12:27:22;4.85;;;1.05;;
40244;SDS011;25963;42.694;23.600;2023-04-12T12:29:50;1.98;;;0.88;;
40244;SDS011;25963;42.694;23.600;2023-04-12T12:32:17;5.95;;;1.02;;
40244;SDS011;25963;42.694;23.600;2023-04-12T12:34:53;2.17;;;1.05;;
40244;SDS011;25963;42.694;23.600;2023-04-12T12:37:23;3.40;;;0.95;;
40244;SDS011;25963;42.694;23.600;2023-04-12T12:40:02;1.50;;;0.68;;
40244;SDS011;25963;42.694;23.600;2023-04-12T12:42:43;7.00;;;2.13;;
40244;SDS011;25963;42.694;23.600;2023-04-12T12:45:10;1.95;;;0.88;;
40244;SDS011;25963;42.694;23.600;2023-04-12T12:50:23;4.03;;;1.05;;
40244;SDS011;25963;42.694;23.600;2023-04-12T12:52:50;5.38;;;1.98;;
40244;SDS011;25963;42.694;23.600;2023-04-12T12:55:17;2.97;;;1.10;;
40244;SDS011;25963;42.694;23.600;2023-04-12T12:57:43;9.43;;;1.30;;
40244;SDS011;25963;42.694;23.600;2023-04-12T13:00:11;3.92;;;0.90;;
40244;SDS011;25963;42.694;23.600;2023-04-12T13:02:37;2.60;;;0.77;;
40244;SDS011;25963;42.694;23.600;2023-04-12T13:05:04;2.45;;;0.80;;
40244;SDS011;25963;42.694;23.600;2023-04-12T13:07:30;2.20;;;1.10;;
40244;SDS011;25963;42.694;23.600;2023-04-12T13:09:55;17.10;;;1.60;;
40244;SDS011;25963;42.694;23.600;2023-04-12T13:12:21;7.13;;;1.52;;
40244;SDS011;25963;42.694;23.600;2023-04-12T13:14:46;5.38;;;1.25;;
40244;SDS011;25963;42.694;23.600;2023-04-12T13:17:13;4.22;;;0.90;;
40244;SDS011;25963;42.694;23.600;2023-04-12T13:19:39;3.75;;;1.50;;
40244;SDS011;25963;42.694;23.600;2023-04-12T13:22:05;2.72;;;1.23;;
40244;SDS011;25963;42.694;23.600;2023-04-12T13:24:32;2.03;;;0.85;;
40244;SDS011;25963;42.694;23.600;2023-04-12T13:26:57;3.00;;;0.70;;
40244;SDS011;25963;42.694;23.600;2023-04-12T13:29:23;1.92;;;0.82;;
40244;SDS011;25963;42.694;23.600;2023-04-12T13:31:49;1.42;;;0.90;;
40244;SDS011;25963;42.694;23.600;2023-04-12T13:34:14;3.22;;;0.80;;
40244;SDS011;25963;42.694;23.600;2023-04-12T13:36:40;4.95;;;1.77;;
40244;SDS011;25963;42.694;23.600;2023-04-12T13:39:05;3.65;;;1.25;;
40244;SDS011;25963;42.694;23.600;2023-04-12T13:41:31;2.35;;;1.00;;
40244;SDS011;25963;42.694;23.600;2023-04-12T13:43:58;2.90;;;1.50;;
40244;SDS011;25963;42.694;23.600;2023-04-12T13:46:24;2.22;;;1.13;;
40244;SDS011;25963;42.694;23.600;2023-04-12T13:48:49;4.03;;;1.20;;
40244;SDS011;25963;42.694;23.600;2023-04-12T13:51:15;7.55;;;1.20;;
40244;SDS011;25963;42.694;23.600;2023-04-12T13:53:42;3.33;;;0.70;;
40244;SDS011;25963;42.694;23.600;2023-04-12T13:56:07;1.63;;;1.00;;
40244;SDS011;25963;42.694;23.600;2023-04-12T13:58:33;4.43;;;2.03;;
40244;SDS011;25963;42.694;23.600;2023-04-12T14:00:59;1.00;;;0.70;;
40244;SDS011;25963;42.694;23.600;2023-04-12T14:03:24;1.88;;;1.10;;
40244;SDS011;25963;42.694;23.600;2023-04-12T14:05:50;9.20;;;2.08;;
40244;SDS011;25963;42.694;23.600;2023-04-12T14:08:16;3.67;;;0.70;;
40244;SDS011;25963;42.694;23.600;2023-04-12T14:10:41;2.25;;;0.73;;
40244;SDS011;25963;42.694;23.600;2023-04-12T14:13:07;1.75;;;0.93;;
40244;SDS011;25963;42.694;23.600;2023-04-12T14:15:32;2.60;;;1.50;;
40244;SDS011;25963;42.694;23.600;2023-04-12T14:17:57;1.17;;;0.70;;
40244;SDS011;25963;42.694;23.600;2023-04-12T14:20:23;1.48;;;0.60;;
40244;SDS011;25963;42.694;23.600;2023-04-12T14:22:49;3.25;;;1.35;;
40244;SDS011;25963;42.694;23.600;2023-04-12T14:25:14;2.05;;;0.68;;
40244;SDS011;25963;42.694;23.600;2023-04-12T14:27:40;1.85;;;0.68;;
40244;SDS011;25963;42.694;23.600;2023-04-12T14:30:06;1.95;;;1.08;;
40244;SDS011;25963;42.694;23.600;2023-04-12T14:32:32;2.03;;;0.68;;
40244;SDS011;25963;42.694;23.600;2023-04-12T14:34:57;0.98;;;0.68;;
40244;SDS011;25963;42.694;23.600;2023-04-12T14:37:23;2.05;;;0.70;;
40244;SDS011;25963;42.694;23.600;2023-04-12T14:39:48;4.43;;;0.88;;
40244;SDS011;25963;42.694;23.600;2023-04-12T14:42:17;1.85;;;0.77;;
40244;SDS011;25963;42.694;23.600;2023-04-12T14:44:42;1.40;;;0.85;;
40244;SDS011;25963;42.694;23.600;2023-04-12T14:47:08;4.13;;;1.75;;
40244;SDS011;25963;42.694;23.600;2023-04-12T14:49:33;11.70;;;4.60;;
40244;SDS011;25963;42.694;23.600;2023-04-12T14:51:59;9.63;;;1.67;;
40244;SDS011;25963;42.694;23.600;2023-04-12T14:54:25;2.75;;;1.25;;
40244;SDS011;25963;42.694;23.600;2023-04-12T14:56:50;1.45;;;1.05;;
40244;SDS011;25963;42.694;23.600;2023-04-12T14:59:16;2.33;;;0.88;;
40244;SDS011;25963;42.694;23.600;2023-04-12T15:01:42;13.80;;;2.00;;
40244;SDS011;25963;42.694;23.600;2023-04-12T15:04:07;7.22;;;1.08;;
40244;SDS011;25963;42.694;23.600;2023-04-12T15:06:33;1.80;;;0.85;;
40244;SDS011;25963;42.694;23.600;2023-04-12T15:09:01;2.58;;;1.70;;